Time;durP1;ratioP1;P1;durP2;ratioP2;P2;SDS_P1;SDS_P2;PMS_P1;PMS_P2;Temp;Humidity;BMP_temperature;BMP_pressure;BME280_temperature;BME280_humidity;BME280_pressure;Samples;Min_cycle;Max_cycle;Signal;HPM_P1;HPM_P2
2021/03/19 00:02:09;;;;;;;15.87;9.20;;;-1.70;99.90;;;;;;5080245;28;20213;-82
2021/03/19 00:04:35;;;;;;;14.50;8.83;;;-1.60;99.90;;;;;;5097718;28;20218;-83
2021/03/19 00:07:00;;;;;;;15.23;8.93;;;-1.70;99.90;;;;;;5079435;28;20454;-82
2021/03/19 00:09:26;;;;;;;16.53;9.90;;;-1.70;99.90;;;;;;5097637;28;20218;-82
2021/03/19 00:11:52;;;;;;;14.70;9.23;;;-1.70;99.90;;;;;;5080401;28;20193;-82
2021/03/19 00:14:18;;;;;;;16.10;9.17;;;-1.70;99.90;;;;;;5079888;28;20187;-82
2021/03/19 00:16:44;;;;;;;15.47;8.13;;;-1.70;99.90;;;;;;5079404;28;20432;-82
2021/03/19 00:19:10;;;;;;;13.33;7.90;;;-1.80;99.90;;;;;;5079611;28;20239;-82
2021/03/19 00:21:36;;;;;;;14.93;9.33;;;-1.80;99.90;;;;;;5079706;28;20457;-82
2021/03/19 00:24:03;;;;;;;12.83;8.67;;;-1.90;99.90;;;;;;5097874;28;20402;-82
2021/03/19 00:26:29;;;;;;;12.77;8.50;;;-1.90;99.90;;;;;;5079583;28;20426;-83
2021/03/19 00:28:54;;;;;;;14.70;8.00;;;-1.90;99.90;;;;;;5079147;28;20420;-83
2021/03/19 00:31:20;;;;;;;11.93;7.37;;;-2.00;99.90;;;;;;5079464;28;20176;-83
2021/03/19 00:33:46;;;;;;;14.23;7.93;;;-2.00;99.90;;;;;;5097441;28;20541;-83
2021/03/19 00:36:12;;;;;;;12.67;7.83;;;-2.00;99.90;;;;;;5079736;28;20282;-83
2021/03/19 00:38:38;;;;;;;11.53;7.60;;;-2.00;99.90;;;;;;5097573;28;20590;-82
2021/03/19 00:41:04;;;;;;;12.47;7.30;;;-2.10;99.90;;;;;;5079020;28;20449;-83
2021/03/19 00:43:30;;;;;;;11.10;7.50;;;-2.10;99.90;;;;;;5079780;28;20212;-83
2021/03/19 00:45:55;;;;;;;14.27;7.90;;;-2.10;99.90;;;;;;5097139;28;20422;-83
2021/03/19 00:48:21;;;;;;;13.43;8.10;;;-2.20;99.90;;;;;;5097282;28;20173;-83
2021/03/19 00:50:47;;;;;;;14.73;8.17;;;-2.20;99.90;;;;;;5079656;28;20183;-82
2021/03/19 00:53:13;;;;;;;12.77;7.20;;;-2.20;99.90;;;;;;5097460;28;20172;-82
2021/03/19 00:55:39;;;;;;;10.67;6.60;;;-2.20;99.90;;;;;;5078892;28;20207;-82
2021/03/19 00:58:05;;;;;;;13.40;7.73;;;-2.30;99.90;;;;;;5078620;28;20186;-83
2021/03/19 01:00:33;;;;;;;12.43;7.83;;;-2.30;99.90;;;;;;5096900;28;20414;-82
2021/03/19 01:02:59;;;;;;;10.90;6.97;;;-2.30;99.90;;;;;;5079295;28;20259;-83
2021/03/19 01:05:29;;;;;;;13.30;6.73;;;-2.30;99.90;;;;;;5081679;28;20439;-82
2021/03/19 01:07:55;;;;;;;13.40;7.57;;;-2.30;99.90;;;;;;5081013;28;20191;-83
2021/03/19 01:10:35;;;;;;;12.23;7.43;;;-2.30;99.90;;;;;;5100429;28;20456;-83
2021/03/19 01:13:01;;;;;;;11.37;6.70;;;-2.40;99.90;;;;;;5082275;28;20171;-83
2021/03/19 01:15:27;;;;;;;9.97;6.40;;;-2.40;99.90;;;;;;5100846;28;20426;-83
2021/03/19 01:17:53;;;;;;;16.43;7.17;;;-2.40;99.90;;;;;;5082959;28;20176;-83
2021/03/19 01:20:20;;;;;;;12.30;6.83;;;-2.40;99.90;;;;;;5083060;28;20816;-83
2021/03/19 01:22:46;;;;;;;11.50;6.70;;;-2.40;99.90;;;;;;5101206;28;20500;-83
2021/03/19 01:25:17;;;;;;;13.20;7.30;;;-2.40;99.90;;;;;;5102065;28;20879;-82
2021/03/19 01:27:43;;;;;;;12.37;7.67;;;-2.40;99.90;;;;;;5100398;28;20216;-83
2021/03/19 01:30:12;;;;;;;11.53;6.57;;;-2.40;99.90;;;;;;5082588;28;20436;-82
2021/03/19 01:32:39;;;;;;;12.63;6.57;;;-2.50;99.90;;;;;;5083312;28;20410;-82
2021/03/19 01:35:06;;;;;;;9.47;6.37;;;-2.50;99.90;;;;;;5101576;28;20417;-83
2021/03/19 01:37:31;;;;;;;13.17;6.77;;;-2.50;99.90;;;;;;5101527;28;20811;-82
2021/03/19 01:39:57;;;;;;;12.47;6.33;;;-2.50;99.90;;;;;;5101236;28;20451;-82
2021/03/19 01:42:23;;;;;;;11.13;6.23;;;-2.50;99.90;;;;;;5083884;28;20197;-82
2021/03/19 01:45:07;;;;;;;12.80;6.77;;;-2.60;99.90;;;;;;5102594;28;20174;-83
2021/03/19 01:48:10;;;;;;;9.17;5.97;;;-2.60;99.90;;;;;;5102986;28;20195;-82
2021/03/19 01:51:13;;;;;;;9.53;6.00;;;-2.60;99.90;;;;;;5084621;28;20410;-83
2021/03/19 01:54:16;;;;;;;10.37;6.10;;;-2.70;99.90;;;;;;5103938;28;20421;-83
2021/03/19 01:57:20;;;;;;;10.00;6.17;;;-2.70;99.90;;;;;;5089104;28;20500;-83
2021/03/19 02:00:23;;;;;;;9.30;5.77;;;-2.80;99.90;;;;;;5090198;28;20950;-82
2021/03/19 02:03:40;;;;;;;10.20;6.03;;;-2.80;99.90;;;;;;5100007;28;20401;-82
2021/03/19 02:06:43;;;;;;;12.43;6.77;;;-2.90;99.90;;;;;;5062544;28;20839;-82
2021/03/19 02:09:46;;;;;;;10.47;6.27;;;-2.90;99.90;;;;;;5077896;28;20422;-82
2021/03/19 02:12:49;;;;;;;11.77;6.10;;;-3.00;99.90;;;;;;5078329;28;20461;-82
2021/03/19 02:15:52;;;;;;;11.17;5.90;;;-3.00;99.90;;;;;;5078017;28;20925;-82
2021/03/19 02:18:56;;;;;;;11.20;6.50;;;-3.10;99.90;;;;;;5077806;28;20408;-81
2021/03/19 02:21:59;;;;;;;10.43;5.20;;;-3.00;99.90;;;;;;5078166;28;20408;-81
2021/03/19 02:25:02;;;;;;;11.23;6.37;;;-3.10;99.90;;;;;;5096466;28;20413;-81
2021/03/19 02:28:05;;;;;;;12.03;6.03;;;-3.10;99.90;;;;;;5077559;28;20438;-81
2021/03/19 02:31:08;;;;;;;8.80;4.97;;;-3.20;99.90;;;;;;5096496;28;20406;-81
2021/03/19 02:33:35;;;;;;;11.63;6.30;;;-3.10;99.90;;;;;;5096588;28;20459;-81
2021/03/19 02:36:02;;;;;;;9.53;6.23;;;-3.20;99.90;;;;;;5078955;28;20434;-82
2021/03/19 02:38:28;;;;;;;9.50;5.77;;;-3.20;99.90;;;;;;5079527;28;20410;-81
2021/03/19 02:40:55;;;;;;;9.67;5.93;;;-3.20;99.90;;;;;;5083937;28;20412;-81
2021/03/19 02:43:22;;;;;;;10.53;5.73;;;-3.20;99.90;;;;;;5101252;28;20967;-81
2021/03/19 02:45:48;;;;;;;8.17;5.43;;;-3.30;99.90;;;;;;5101158;28;20426;-81
2021/03/19 02:48:16;;;;;;;10.73;6.63;;;-3.30;99.90;;;;;;5101889;28;20968;-81
2021/03/19 02:50:42;;;;;;;8.53;5.13;;;-3.40;99.90;;;;;;5101678;28;20196;-81
2021/03/19 02:53:17;;;;;;;8.87;5.87;;;-3.40;99.90;;;;;;5083546;28;20458;-81
2021/03/19 02:55:43;;;;;;;12.43;6.23;;;-3.40;99.90;;;;;;5083487;28;20438;-81
2021/03/19 02:58:09;;;;;;;10.93;5.93;;;-3.40;99.90;;;;;;5101782;28;20399;-81
2021/03/19 03:00:35;;;;;;;8.40;5.30;;;-3.50;99.90;;;;;;5083635;28;20168;-81
2021/03/19 03:03:02;;;;;;;7.50;5.07;;;-3.40;99.90;;;;;;5101403;28;20856;-81
2021/03/19 03:05:28;;;;;;;9.80;5.50;;;-3.40;99.90;;;;;;5082850;28;20487;-81
2021/03/19 03:07:53;;;;;;;8.33;5.63;;;-3.50;99.90;;;;;;5082820;28;20964;-82
2021/03/19 03:10:23;;;;;;;9.00;5.60;;;-3.50;99.90;;;;;;5083242;28;20178;-81
2021/03/19 03:12:48;;;;;;;9.20;5.30;;;-3.50;99.90;;;;;;5101500;28;20665;-81
2021/03/19 03:15:17;;;;;;;9.97;6.23;;;-3.50;99.90;;;;;;5101465;28;20494;-82
2021/03/19 03:17:44;;;;;;;10.17;6.53;;;-3.60;99.90;;;;;;5083970;28;20199;-81
2021/03/19 03:20:15;;;;;;;13.80;6.90;;;-3.50;99.90;;;;;;5083596;28;20408;-81
2021/03/19 03:22:42;;;;;;;10.57;6.83;;;-3.50;99.90;;;;;;5083627;28;20430;-81
2021/03/19 03:25:10;;;;;;;12.60;5.93;;;-3.50;99.90;;;;;;5101664;28;20413;-81
2021/03/19 03:27:36;;;;;;;10.33;6.60;;;-3.60;99.90;;;;;;5101974;28;20433;-81
2021/03/19 03:30:04;;;;;;;10.17;6.40;;;-3.60;99.90;;;;;;5102315;28;20890;-81
2021/03/19 03:32:30;;;;;;;12.60;7.10;;;-3.60;99.90;;;;;;5083525;28;20237;-81
2021/03/19 03:34:55;;;;;;;10.87;6.67;;;-3.60;99.90;;;;;;5084629;28;20412;-81
2021/03/19 03:37:21;;;;;;;13.80;6.20;;;-3.60;99.90;;;;;;5084781;28;20557;-81
2021/03/19 03:39:46;;;;;;;10.17;6.13;;;-3.70;99.90;;;;;;5083995;28;20646;-81
2021/03/19 03:42:12;;;;;;;10.43;5.57;;;-3.70;99.90;;;;;;5102794;28;20308;-81
2021/03/19 03:44:38;;;;;;;10.37;6.00;;;-3.80;99.90;;;;;;5103461;28;20173;-81
2021/03/19 03:47:03;;;;;;;11.57;6.40;;;-3.80;99.90;;;;;;5103324;28;20199;-81
2021/03/19 03:49:29;;;;;;;9.83;5.93;;;-3.80;99.90;;;;;;5103110;28;20178;-81
2021/03/19 03:51:55;;;;;;;8.00;5.77;;;-3.80;99.90;;;;;;5084875;28;20669;-81
2021/03/19 03:54:21;;;;;;;9.20;5.30;;;-3.80;99.90;;;;;;5095133;28;20291;-81
2021/03/19 03:56:47;;;;;;;7.53;4.63;;;-3.80;99.90;;;;;;5084944;28;20248;-81
2021/03/19 03:59:12;;;;;;;10.77;5.97;;;-3.90;99.90;;;;;;5085149;28;20180;-81
2021/03/19 04:01:40;;;;;;;8.83;5.33;;;-3.90;99.90;;;;;;5085126;28;20177;-82
2021/03/19 04:04:09;;;;;;;7.40;4.07;;;-4.00;99.90;;;;;;5103998;28;20172;-81
2021/03/19 04:06:34;;;;;;;11.63;4.93;;;-4.00;99.90;;;;;;5084846;28;20445;-81
2021/03/19 04:09:00;;;;;;;10.47;5.37;;;-4.00;99.90;;;;;;5083660;28;20987;-81
2021/03/19 04:11:26;;;;;;;10.40;5.70;;;-4.10;99.90;;;;;;5084185;28;20219;-81
2021/03/19 04:13:52;;;;;;;9.80;5.10;;;-4.10;99.90;;;;;;5084884;28;20178;-82
2021/03/19 04:16:19;;;;;;;10.73;5.07;;;-4.00;99.90;;;;;;5084593;28;20196;-82
2021/03/19 04:18:45;;;;;;;10.77;5.97;;;-4.10;99.90;;;;;;5102793;28;20418;-82
2021/03/19 04:21:11;;;;;;;9.70;4.70;;;-4.10;99.90;;;;;;5085128;28;20413;-82
2021/03/19 04:23:44;;;;;;;8.27;5.03;;;-4.00;99.90;;;;;;5103555;28;20473;-81
2021/03/19 04:26:24;;;;;;;8.80;4.50;;;-4.10;99.90;;;;;;5103350;28;21006;-82
2021/03/19 04:28:51;;;;;;;10.70;4.43;;;-4.10;99.90;;;;;;5103757;28;20410;-82
2021/03/19 04:31:17;;;;;;;8.37;4.93;;;-4.10;99.90;;;;;;5086422;28;20407;-82
2021/03/19 04:33:42;;;;;;;11.53;6.10;;;-4.20;99.90;;;;;;5085340;28;20426;-82
2021/03/19 04:36:41;;;;;;;11.77;5.90;;;-4.20;99.90;;;;;;5086242;28;20190;-82
2021/03/19 04:39:10;;;;;;;8.33;4.93;;;-4.20;99.90;;;;;;5086559;28;20177;-82
2021/03/19 04:41:36;;;;;;;10.03;5.77;;;-4.20;99.90;;;;;;5105509;28;20402;-82
2021/03/19 04:44:03;;;;;;;11.50;5.47;;;-4.20;99.90;;;;;;5087082;28;21010;-82
2021/03/19 04:46:30;;;;;;;10.13;5.57;;;-4.30;99.90;;;;;;5087089;28;20200;-82
2021/03/19 04:48:55;;;;;;;9.37;5.37;;;-4.20;99.90;;;;;;5088168;28;20783;-82
2021/03/19 04:51:21;;;;;;;9.57;4.40;;;-4.20;99.90;;;;;;5106055;28;20406;-82
2021/03/19 04:53:46;;;;;;;8.13;4.97;;;-4.20;99.90;;;;;;5088351;28;20631;-82
2021/03/19 04:56:12;;;;;;;9.43;5.00;;;-4.20;99.90;;;;;;5105040;28;20184;-82
2021/03/19 04:58:38;;;;;;;9.40;4.83;;;-4.20;99.90;;;;;;5084380;28;20570;-81
2021/03/19 05:01:03;;;;;;;7.90;4.70;;;-4.20;99.90;;;;;;5099066;28;20261;-82
2021/03/19 05:03:32;;;;;;;12.40;5.33;;;-4.20;99.90;;;;;;5079849;28;20290;-81
2021/03/19 05:05:57;;;;;;;7.80;5.00;;;-4.20;99.90;;;;;;5081253;28;20224;-81
2021/03/19 05:08:23;;;;;;;8.93;5.07;;;-3.90;99.90;;;;;;5080551;28;20437;-81
2021/03/19 05:10:49;;;;;;;11.17;5.17;;;-4.10;99.90;;;;;;5080810;28;20177;-81
2021/03/19 05:13:14;;;;;;;7.20;4.77;;;-4.10;99.90;;;;;;5080866;28;20292;-81
2021/03/19 05:15:41;;;;;;;7.80;4.03;;;-4.10;99.90;;;;;;5099194;28;20581;-81
2021/03/19 05:18:07;;;;;;;11.70;5.67;;;-4.10;99.90;;;;;;5099697;28;20651;-81
2021/03/19 05:20:33;;;;;;;8.17;5.00;;;-4.10;99.90;;;;;;5101000;28;20492;-81
2021/03/19 05:22:58;;;;;;;9.83;5.20;;;-4.10;99.90;;;;;;5081543;28;20550;-81
2021/03/19 05:25:29;;;;;;;11.13;5.73;;;-4.10;99.90;;;;;;5099764;28;20236;-81
2021/03/19 05:27:54;;;;;;;10.53;5.93;;;-4.10;99.90;;;;;;5099920;28;20161;-81
2021/03/19 05:30:25;;;;;;;29.13;11.70;;;-4.10;99.90;;;;;;5100789;28;20421;-82
2021/03/19 05:32:51;;;;;;;52.70;21.57;;;-4.10;99.90;;;;;;5082502;28;20201;-81
2021/03/19 05:35:22;;;;;;;58.53;22.80;;;-4.10;99.90;;;;;;5100900;28;21036;-82
2021/03/19 05:37:50;;;;;;;104.57;37.77;;;-4.20;99.90;;;;;;5083049;28;20943;-82
2021/03/19 05:40:26;;;;;;;31.13;14.73;;;-4.20;99.90;;;;;;5083217;28;20441;-82
2021/03/19 05:42:51;;;;;;;20.97;12.87;;;-4.20;99.90;;;;;;5101711;28;20394;-82
2021/03/19 05:45:17;;;;;;;11.37;6.77;;;-4.20;99.90;;;;;;5082407;28;20429;-82
2021/03/19 05:47:46;;;;;;;8.10;3.97;;;-4.20;99.90;;;;;;5101259;28;20168;-82
2021/03/19 05:50:40;;;;;;;6.87;3.97;;;-4.10;99.90;;;;;;5100849;28;20211;-82
2021/03/19 05:53:15;;;;;;;8.93;4.80;;;-4.20;99.90;;;;;;5087145;28;20470;-82
2021/03/19 05:55:41;;;;;;;7.87;4.37;;;-4.20;99.90;;;;;;5082550;28;20803;-80
2021/03/19 05:58:36;;;;;;;7.43;4.33;;;-4.30;99.90;;;;;;5080235;28;20670;-79
2021/03/19 06:01:02;;;;;;;7.13;4.00;;;-4.30;99.90;;;;;;5095951;28;20446;-79
2021/03/19 06:03:28;;;;;;;8.07;4.43;;;-4.30;99.90;;;;;;5099233;28;20407;-79
2021/03/19 06:06:08;;;;;;;6.97;4.37;;;-4.30;99.90;;;;;;5080087;28;20519;-79
2021/03/19 06:08:54;;;;;;;5.67;4.17;;;-4.30;99.90;;;;;;5097458;28;20211;-79
2021/03/19 06:11:25;;;;;;;9.20;4.70;;;-4.30;99.90;;;;;;5068358;28;20467;-79
2021/03/19 06:14:02;;;;;;;6.90;4.00;;;-4.20;99.90;;;;;;5096049;28;20408;-80
2021/03/19 06:16:49;;;;;;;5.00;3.77;;;-4.20;99.90;;;;;;5098122;28;20423;-80
2021/03/19 06:19:31;;;;;;;6.27;3.70;;;-4.20;99.90;;;;;;5076835;28;20512;-79
2021/03/19 06:22:21;;;;;;;8.03;4.10;;;-4.20;99.90;;;;;;5088967;28;20402;-79
2021/03/19 06:25:14;;;;;;;5.10;3.43;;;-4.20;99.90;;;;;;5098973;28;20447;-79
2021/03/19 06:27:55;;;;;;;7.80;4.20;;;-4.20;99.90;;;;;;5080338;28;20412;-79
2021/03/19 06:30:37;;;;;;;7.00;4.20;;;-4.20;99.90;;;;;;5080932;28;20418;-83
2021/03/19 06:33:12;;;;;;;6.90;4.30;;;-4.00;99.90;;;;;;5078883;28;20462;-79
2021/03/19 06:35:42;;;;;;;7.47;4.07;;;-4.00;99.90;;;;;;5079583;28;20477;-79
2021/03/19 06:38:29;;;;;;;6.23;3.60;;;-3.90;99.90;;;;;;5079452;28;20415;-79
2021/03/19 06:40:55;;;;;;;6.67;3.70;;;-3.90;99.90;;;;;;5099917;28;20426;-79
2021/03/19 06:43:28;;;;;;;4.57;2.73;;;-3.90;99.90;;;;;;5080664;28;20875;-80
2021/03/19 06:46:19;;;;;;;5.00;3.90;;;-3.90;99.90;;;;;;5099316;28;20642;-80
2021/03/19 06:48:55;;;;;;;7.50;4.33;;;-3.90;99.90;;;;;;5077622;28;20414;-80
2021/03/19 06:51:34;;;;;;;7.97;4.40;;;-3.80;99.90;;;;;;5081211;28;20920;-80
2021/03/19 06:54:15;;;;;;;9.90;4.10;;;-3.80;99.90;;;;;;5099814;28;20392;-80
2021/03/19 06:57:00;;;;;;;5.90;3.40;;;-3.70;99.90;;;;;;5080936;28;20525;-79
2021/03/19 06:59:28;;;;;;;7.97;4.00;;;-3.80;99.90;;;;;;5099513;28;20437;-80
2021/03/19 07:01:54;;;;;;;7.43;4.13;;;-3.70;99.90;;;;;;5082052;28;20418;-79
2021/03/19 07:04:45;;;;;;;6.40;3.27;;;-3.60;99.90;;;;;;5083299;28;20413;-80
2021/03/19 07:07:37;;;;;;;7.80;3.93;;;-3.60;99.90;;;;;;5099889;28;20944;-79
2021/03/19 07:10:31;;;;;;;9.57;4.33;;;-3.60;99.90;;;;;;5059881;28;20807;-79
2021/03/19 07:13:32;;;;;;;7.13;3.80;;;-3.40;99.90;;;;;;5101224;28;20469;-79
2021/03/19 07:16:21;;;;;;;7.83;4.10;;;-3.20;99.90;;;;;;5083131;28;20476;-79
2021/03/19 07:18:55;;;;;;;7.23;4.17;;;-3.30;99.90;;;;;;5082571;28;20415;-80
2021/03/19 07:22:02;;;;;;;9.33;3.73;;;-3.20;99.90;;;;;;5102105;28;20877;-80
2021/03/19 07:24:55;;;;;;;4.67;3.07;;;-3.10;99.90;;;;;;5072503;28;20411;-79
2021/03/19 07:27:55;;;;;;;6.57;4.03;;;-3.00;99.90;;;;;;5088279;28;20961;-79
2021/03/19 07:30:23;;;;;;;7.77;3.50;;;-2.60;99.90;;;;;;5106214;28;20744;-79
2021/03/19 07:33:26;;;;;;;7.23;3.80;;;-2.50;99.90;;;;;;5089079;28;20465;-80
2021/03/19 07:36:03;;;;;;;5.57;3.17;;;-2.20;99.90;;;;;;5089972;28;20527;-80
2021/03/19 07:38:48;;;;;;;5.70;4.07;;;-2.00;99.90;;;;;;5090005;28;20414;-80
2021/03/19 07:41:50;;;;;;;4.97;3.50;;;-2.00;99.90;;;;;;5108372;28;20409;-80
2021/03/19 07:44:40;;;;;;;6.80;4.27;;;-2.10;99.90;;;;;;5109138;28;20485;-82
2021/03/19 07:47:43;;;;;;;7.13;4.47;;;-2.10;99.90;;;;;;5091284;28;20434;-82
2021/03/19 07:50:31;;;;;;;7.70;4.50;;;-2.10;99.90;;;;;;5109731;28;20398;-82
2021/03/19 07:53:18;;;;;;;7.67;4.77;;;-2.00;99.90;;;;;;5108039;28;20444;-82
2021/03/19 07:56:02;;;;;;;11.07;5.03;;;-2.00;99.90;;;;;;5086683;28;20437;-82
2021/03/19 07:58:36;;;;;;;5.93;4.23;;;-2.00;99.90;;;;;;5086193;28;20951;-82
2021/03/19 08:01:30;;;;;;;7.87;4.63;;;-1.90;99.90;;;;;;5086315;28;20418;-82
2021/03/19 08:04:04;;;;;;;6.63;3.97;;;-1.80;99.90;;;;;;5104827;28;20397;-81
2021/03/19 08:06:37;;;;;;;7.23;3.90;;;-1.70;99.90;;;;;;5103977;28;20433;-81
2021/03/19 08:09:13;;;;;;;6.90;4.30;;;-1.70;99.90;;;;;;5103690;28;20406;-81
2021/03/19 08:12:07;;;;;;;6.57;4.57;;;-1.30;99.90;;;;;;5083139;28;20464;-81
2021/03/19 08:14:40;;;;;;;6.63;4.27;;;-1.10;99.90;;;;;;5093906;28;20411;-81
2021/03/19 08:17:19;;;;;;;7.90;4.10;;;-1.00;99.90;;;;;;5084751;28;20442;-81
2021/03/19 08:20:19;;;;;;;6.90;4.17;;;-1.10;99.90;;;;;;5085043;28;20941;-81
2021/03/19 08:23:06;;;;;;;7.00;4.57;;;-1.40;99.90;;;;;;5085874;28;20421;-81
2021/03/19 08:25:40;;;;;;;8.50;4.70;;;-1.60;99.90;;;;;;5085401;28;20475;-82
2021/03/19 08:28:36;;;;;;;8.07;4.60;;;-1.60;99.90;;;;;;5104179;28;20410;-82
2021/03/19 08:31:50;;;;;;;7.50;4.57;;;-1.60;99.90;;;;;;5088007;28;20417;-82
2021/03/19 08:34:25;;;;;;;7.90;4.87;;;-1.50;99.90;;;;;;5072785;28;20418;-82
2021/03/19 08:36:53;;;;;;;6.57;4.80;;;-1.40;99.90;;;;;;5107265;28;20745;-82
2021/03/19 08:39:41;;;;;;;6.13;3.90;;;-1.20;99.90;;;;;;5104079;28;20797;-81
2021/03/19 08:42:40;;;;;;;9.00;5.53;;;-1.30;99.90;;;;;;5084665;28;20892;-81
2021/03/19 08:45:15;;;;;;;7.93;4.50;;;-1.10;99.90;;;;;;5085462;28;20412;-81
2021/03/19 08:47:44;;;;;;;6.83;5.10;;;-0.90;99.90;;;;;;5105125;28;20408;-81
2021/03/19 08:50:15;;;;;;;14.03;8.70;;;-0.70;99.90;;;;;;5086427;28;20429;-81
2021/03/19 08:53:00;;;;;;;8.07;4.87;;;-0.40;99.90;;;;;;5104290;28;20454;-81
2021/03/19 08:55:27;;;;;;;10.17;5.03;;;-0.10;99.90;;;;;;5104174;28;20383;-82
2021/03/19 08:57:56;;;;;;;9.17;5.30;;;-0.40;99.90;;;;;;5085445;28;20418;-82
2021/03/19 09:00:24;;;;;;;7.73;5.30;;;-0.40;99.90;;;;;;5103806;28;20414;-82
2021/03/19 09:02:52;;;;;;;7.20;5.37;;;-0.40;99.90;;;;;;5085911;28;20445;-82
2021/03/19 09:05:24;;;;;;;8.73;5.60;;;-0.20;99.90;;;;;;5084484;28;20424;-82
2021/03/19 09:08:11;;;;;;;7.97;5.00;;;0.30;99.90;;;;;;5102312;28;20919;-82
2021/03/19 09:10:36;;;;;;;7.70;5.40;;;1.00;99.90;;;;;;5102117;28;20801;-83
2021/03/19 09:13:08;;;;;;;8.37;5.00;;;2.10;99.90;;;;;;5101850;28;20449;-82
2021/03/19 09:15:38;;;;;;;9.17;5.23;;;3.20;99.90;;;;;;5083153;28;20192;-82
2021/03/19 09:18:26;;;;;;;6.73;4.30;;;3.70;99.90;;;;;;5083476;28;20415;-82
2021/03/19 09:21:02;;;;;;;9.20;6.30;;;3.20;99.90;;;;;;5100748;28;20394;-82
2021/03/19 09:23:50;;;;;;;9.43;5.30;;;2.90;99.90;;;;;;5082435;28;20425;-80
2021/03/19 09:26:19;;;;;;;6.93;4.80;;;2.60;99.90;;;;;;5082192;28;20508;-82
2021/03/19 09:28:59;;;;;;;6.00;4.57;;;2.50;99.90;;;;;;5082094;28;20572;-82
2021/03/19 09:31:25;;;;;;;5.77;4.53;;;2.40;99.90;;;;;;5081691;28;20418;-82
2021/03/19 09:33:50;;;;;;;6.00;4.27;;;2.40;99.90;;;;;;5101282;28;20430;-82
2021/03/19 09:36:52;;;;;;;8.40;4.97;;;2.50;99.90;;;;;;5101313;28;20661;-82
2021/03/19 09:39:43;;;;;;;8.33;5.10;;;2.40;99.90;;;;;;5083256;28;20179;-82
2021/03/19 09:42:28;;;;;;;8.03;5.03;;;2.90;99.90;;;;;;5082402;28;20177;-82
2021/03/19 09:45:00;;;;;;;9.33;4.67;;;3.40;99.90;;;;;;5083930;28;20410;-81
2021/03/19 09:47:35;;;;;;;11.50;7.77;;;3.80;99.90;;;;;;5101522;28;20188;-81
2021/03/19 09:50:08;;;;;;;93.30;42.40;;;3.50;99.90;;;;;;5101757;28;20179;-82
2021/03/19 09:52:35;;;;;;;27.00;14.00;;;3.60;99.90;;;;;;5083250;28;20205;-81
2021/03/19 09:55:13;;;;;;;11.03;6.73;;;4.00;99.90;;;;;;5083570;28;20630;-81
2021/03/19 09:57:39;;;;;;;26.00;16.90;;;4.50;99.90;;;;;;5083380;28;20169;-81
2021/03/19 10:00:18;;;;;;;9.23;6.30;;;4.60;99.90;;;;;;5083109;28;20310;-81
2021/03/19 10:02:44;;;;;;;7.37;5.67;;;4.80;99.90;;;;;;5082762;28;20645;-81
2021/03/19 10:05:12;;;;;;;9.93;6.03;;;4.90;99.90;;;;;;5100222;28;20180;-81
2021/03/19 10:07:43;;;;;;;17.67;11.73;;;5.00;99.90;;;;;;5081680;28;20282;-80
2021/03/19 10:10:41;;;;;;;83.13;45.77;;;5.10;99.90;;;;;;5100305;28;20160;-81
2021/03/19 10:13:09;;;;;;;12.70;8.03;;;5.50;99.90;;;;;;5100390;28;20216;-80
2021/03/19 10:15:35;;;;;;;29.23;19.60;;;5.60;99.90;;;;;;5100175;28;20195;-81
2021/03/19 10:18:04;;;;;;;24.23;14.43;;;5.80;99.90;;;;;;5099917;28;20237;-81
2021/03/19 10:20:36;;;;;;;8.67;6.53;;;5.80;99.90;;;;;;5082438;28;20582;-79
2021/03/19 10:23:11;;;;;;;14.53;9.43;;;5.80;99.90;;;;;;5100286;28;20175;-80
2021/03/19 10:25:43;;;;;;;9.43;7.00;;;6.00;99.90;;;;;;5082177;28;20202;-80
2021/03/19 10:28:20;;;;;;;38.87;22.67;;;6.10;99.90;;;;;;5100638;28;20191;-80
2021/03/19 10:30:54;;;;;;;11.00;7.47;;;5.90;99.90;;;;;;5100862;28;20505;-80
2021/03/19 10:33:36;;;;;;;10.23;6.77;;;5.70;99.90;;;;;;5082609;28;20234;-80
2021/03/19 10:36:06;;;;;;;11.47;6.53;;;5.70;99.90;;;;;;5101338;28;20544;-80
2021/03/19 10:39:02;;;;;;;11.87;8.33;;;5.80;99.90;;;;;;5101666;28;20176;-80
2021/03/19 10:41:47;;;;;;;8.37;6.40;;;6.40;99.90;;;;;;5098009;28;20200;-81
2021/03/19 10:44:19;;;;;;;11.07;6.60;;;6.90;99.90;;;;;;5087226;28;20180;-80
2021/03/19 10:46:56;;;;;;;8.63;6.67;;;7.30;99.90;;;;;;5087029;28;20203;-79
2021/03/19 10:49:37;;;;;;;9.07;6.47;;;7.40;99.90;;;;;;5081238;28;20190;-78
2021/03/19 10:52:30;;;;;;;8.23;6.20;;;7.60;99.90;;;;;;5081352;28;20263;-78
2021/03/19 10:55:00;;;;;;;9.07;6.90;;;6.50;99.90;;;;;;5098431;28;20223;-79
2021/03/19 10:57:37;;;;;;;13.53;6.77;;;6.00;99.90;;;;;;5079954;28;20199;-78
2021/03/19 11:00:22;;;;;;;7.23;6.53;;;6.00;99.90;;;;;;5083019;28;20168;-79
2021/03/19 11:02:56;;;;;;;8.50;6.70;;;5.60;99.90;;;;;;5084999;28;20202;-79
2021/03/19 11:05:22;;;;;;;10.10;6.33;;;5.40;99.90;;;;;;5102406;28;20168;-78
2021/03/19 11:07:48;;;;;;;7.50;6.70;;;4.70;99.90;;;;;;5083936;28;20268;-80
2021/03/19 11:10:48;;;;;;;7.87;6.83;;;4.50;99.90;;;;;;5102773;28;20184;-79
2021/03/19 11:13:13;;;;;;;10.50;6.57;;;4.50;99.90;;;;;;5100699;28;20673;-80
2021/03/19 11:15:44;;;;;;;63.23;41.80;;;4.60;99.90;;;;;;5102421;28;20184;-79
2021/03/19 11:18:24;;;;;;;11.50;6.77;;;4.70;99.90;;;;;;5101655;28;20203;-79
2021/03/19 11:21:01;;;;;;;10.27;6.60;;;4.40;99.90;;;;;;5083497;28;20182;-79
2021/03/19 11:23:27;;;;;;;13.37;7.53;;;4.60;99.90;;;;;;5083154;28;20168;-79
2021/03/19 11:25:54;;;;;;;7.27;6.43;;;4.60;99.90;;;;;;5102001;28;20535;-79
2021/03/19 11:28:27;;;;;;;10.17;6.70;;;4.60;99.90;;;;;;5083237;28;20184;-79
2021/03/19 11:30:54;;;;;;;9.53;6.40;;;4.60;99.90;;;;;;5083082;28;20195;-79
2021/03/19 11:33:20;;;;;;;7.13;5.80;;;4.40;99.90;;;;;;5100852;28;20204;-79
2021/03/19 11:36:13;;;;;;;8.33;6.03;;;4.20;99.90;;;;;;5082386;28;20207;-79
2021/03/19 11:38:40;;;;;;;9.80;6.43;;;3.90;99.90;;;;;;5081903;28;20713;-78
2021/03/19 11:41:34;;;;;;;10.00;5.87;;;3.90;99.90;;;;;;5082020;28;20572;-79
2021/03/19 11:44:00;;;;;;;6.73;6.00;;;3.90;99.90;;;;;;5100352;28;20160;-79
2021/03/19 11:46:28;;;;;;;8.83;6.00;;;3.90;99.90;;;;;;5082065;28;20236;-79
2021/03/19 11:48:55;;;;;;;9.40;6.43;;;4.40;99.90;;;;;;5081500;28;20178;-79
2021/03/19 11:51:29;;;;;;;8.30;5.80;;;5.50;99.90;;;;;;5082587;28;20272;-79
2021/03/19 11:53:59;;;;;;;8.30;5.40;;;7.10;99.90;;;;;;5100262;28;20232;-79
2021/03/19 11:56:27;;;;;;;7.00;5.37;;;7.70;95.20;;;;;;5100485;28;20195;-79
2021/03/19 11:58:52;;;;;;;29.73;27.07;;;7.60;92.40;;;;;;5099358;28;20501;-79
2021/03/19 12:01:18;;;;;;;10.07;9.07;;;7.50;95.10;;;;;;5099243;28;20230;-79
2021/03/19 12:03:53;;;;;;;7.20;6.03;;;7.60;96.30;;;;;;5099027;28;20270;-78
2021/03/19 12:06:22;;;;;;;7.37;5.57;;;7.60;93.70;;;;;;5080976;28;20214;-79
2021/03/19 12:08:48;;;;;;;7.17;5.90;;;7.20;92.40;;;;;;5098937;28;20274;-79
2021/03/19 12:11:37;;;;;;;9.83;6.50;;;7.30;94.20;;;;;;5098089;28;20211;-78
2021/03/19 12:14:05;;;;;;;7.33;6.63;;;7.10;97.20;;;;;;5098941;28;20152;-79
2021/03/19 12:16:31;;;;;;;8.03;6.57;;;7.30;99.50;;;;;;5079720;28;20560;-79
2021/03/19 12:18:57;;;;;;;10.23;7.20;;;6.80;97.60;;;;;;5080177;28;20638;-78
2021/03/19 12:21:23;;;;;;;11.27;7.83;;;6.10;99.40;;;;;;5081605;28;20202;-79
2021/03/19 12:23:50;;;;;;;11.70;7.40;;;5.60;99.70;;;;;;5099664;28;20713;-79
2021/03/19 12:26:16;;;;;;;7.70;6.90;;;5.30;99.90;;;;;;5099303;28;20238;-79
2021/03/19 12:28:41;;;;;;;8.07;6.40;;;4.90;99.90;;;;;;5099589;28;20175;-78
2021/03/19 12:31:07;;;;;;;7.83;7.03;;;4.30;99.90;;;;;;5099805;28;20176;-79
2021/03/19 12:33:37;;;;;;;10.57;9.50;;;4.10;99.90;;;;;;5081179;28;20196;-79
2021/03/19 12:36:04;;;;;;;13.27;7.33;;;4.10;99.90;;;;;;5080831;28;20192;-79
2021/03/19 12:38:29;;;;;;;9.27;7.60;;;3.80;99.90;;;;;;5099346;28;20171;-79
2021/03/19 12:40:58;;;;;;;10.07;6.67;;;3.70;99.90;;;;;;5081308;28;20173;-79
2021/03/19 12:43:23;;;;;;;7.93;6.40;;;3.50;99.90;;;;;;5099668;28;20669;-79
2021/03/19 12:45:50;;;;;;;9.47;6.93;;;3.30;99.90;;;;;;5081414;28;20200;-79
2021/03/19 12:48:15;;;;;;;9.00;6.83;;;3.30;99.90;;;;;;5080940;28;20244;-79
2021/03/19 12:50:41;;;;;;;8.87;6.33;;;4.20;99.90;;;;;;5081193;28;20212;-79
2021/03/19 12:53:12;;;;;;;10.50;6.67;;;6.40;99.90;;;;;;5099886;28;20619;-79
2021/03/19 12:55:38;;;;;;;8.70;6.47;;;8.50;98.50;;;;;;5081265;28;20231;-79
2021/03/19 12:58:04;;;;;;;8.77;6.10;;;10.00;92.70;;;;;;5099045;28;20159;-79
2021/03/19 13:00:34;;;;;;;12.33;7.00;;;10.80;90.80;;;;;;5099835;28;20172;-79
2021/03/19 13:03:00;;;;;;;10.10;6.63;;;11.30;80.50;;;;;;5099350;28;20271;-79
2021/03/19 13:05:28;;;;;;;8.90;6.27;;;11.80;83.70;;;;;;5080695;28;20213;-79
2021/03/19 13:07:54;;;;;;;8.13;6.17;;;12.10;77.00;;;;;;5096172;28;20745;-77
2021/03/19 13:10:22;;;;;;;8.27;6.67;;;12.50;67.50;;;;;;5078166;28;20172;-78
2021/03/19 13:12:48;;;;;;;8.30;6.57;;;13.00;72.10;;;;;;5095996;28;20327;-78
2021/03/19 13:15:16;;;;;;;7.37;6.37;;;12.20;63.20;;;;;;5096384;28;20243;-77
2021/03/19 13:17:41;;;;;;;10.00;6.53;;;11.70;65.00;;;;;;5078360;28;20183;-77
2021/03/19 13:20:09;;;;;;;15.07;13.13;;;10.20;69.90;;;;;;5077605;28;20180;-77
2021/03/19 13:22:36;;;;;;;10.33;6.93;;;8.90;73.80;;;;;;5094939;28;20183;-77